createdAt,value
2023-03-26T00:01:58.476Z,9.82
2023-03-26T00:04:28.121Z,9.74
2023-03-26T00:06:57.168Z,9.72
2023-03-26T00:09:25.994Z,9.70
2023-03-26T00:11:54.753Z,9.68
2023-03-26T00:14:26.662Z,9.65
2023-03-26T00:16:55.194Z,9.76
2023-03-26T00:19:28.302Z,9.89
2023-03-26T00:21:57.733Z,10.00
2023-03-26T00:24:30.620Z,10.07
2023-03-26T00:26:59.736Z,10.11
2023-03-26T00:29:28.850Z,10.15
2023-03-26T00:31:57.478Z,10.16
2023-03-26T00:34:27.449Z,10.17
2023-03-26T00:36:55.858Z,10.16
2023-03-26T00:39:24.558Z,10.18
2023-03-26T00:41:54.416Z,10.20
2023-03-26T00:44:25.822Z,10.22
2023-03-26T00:46:54.213Z,10.23
2023-03-26T00:49:22.582Z,10.28
2023-03-26T00:51:53.018Z,10.31
2023-03-26T00:54:21.549Z,10.31
2023-03-26T00:56:50.010Z,10.32
2023-03-26T00:59:18.544Z,10.32
2023-03-26T01:01:47.183Z,10.32
2023-03-26T01:04:34.897Z,10.33
2023-03-26T01:07:11.186Z,10.30
2023-03-26T01:09:45.168Z,10.30
2023-03-26T01:12:17.206Z,10.31
2023-03-26T01:14:47.395Z,10.35
2023-03-26T01:17:16.368Z,10.37
2023-03-26T01:19:49.552Z,10.41
2023-03-26T01:22:21.672Z,10.28
2023-03-26T01:24:56.260Z,10.18
2023-03-26T01:27:34.881Z,10.17
2023-03-26T01:30:11.129Z,10.15
2023-03-26T01:32:50.152Z,10.16
2023-03-26T01:35:30.455Z,10.15
2023-03-26T01:38:10.927Z,10.15
2023-03-26T01:40:49.409Z,10.13
2023-03-26T01:43:28.410Z,10.13
2023-03-26T01:46:01.074Z,10.14
2023-03-26T01:48:32.514Z,10.14
2023-03-26T01:51:00.905Z,10.16
2023-03-26T01:53:30.256Z,10.15
2023-03-26T01:56:12.799Z,10.15
2023-03-26T01:58:56.290Z,10.15
2023-03-26T02:01:30.363Z,10.14
2023-03-26T02:04:06.372Z,10.09
2023-03-26T02:06:44.266Z,10.10
2023-03-26T02:09:15.973Z,10.12
2023-03-26T02:11:47.558Z,10.15
2023-03-26T02:14:16.141Z,10.13
2023-03-26T02:16:46.981Z,10.13
2023-03-26T02:19:21.483Z,10.11
2023-03-26T02:21:52.020Z,10.05
2023-03-26T02:24:20.897Z,9.99
2023-03-26T02:26:50.650Z,9.97
2023-03-26T02:29:21.367Z,9.95
2023-03-26T02:31:51.947Z,9.95
2023-03-26T02:34:20.331Z,9.94
2023-03-26T02:36:48.728Z,9.91
2023-03-26T02:39:17.141Z,9.86
2023-03-26T02:41:45.534Z,9.82
2023-03-26T02:44:15.415Z,9.78
2023-03-26T02:46:43.909Z,9.78
2023-03-26T02:49:12.257Z,9.78
2023-03-26T02:51:40.774Z,9.76
2023-03-26T02:54:09.174Z,9.79
2023-03-26T02:56:37.806Z,9.81
2023-03-26T02:59:17.626Z,9.83
2023-03-26T03:01:56.120Z,9.83
2023-03-26T03:04:24.597Z,9.83
2023-03-26T03:06:57.433Z,9.83
2023-03-26T03:09:27.257Z,9.83
2023-03-26T03:11:55.782Z,9.81
2023-03-26T03:14:28.212Z,9.79
2023-03-26T03:16:57.192Z,9.80
2023-03-26T03:19:27.942Z,9.82
2023-03-26T03:21:56.363Z,9.87
2023-03-26T03:24:24.740Z,9.89
2023-03-26T03:26:56.902Z,9.88
2023-03-26T03:29:27.245Z,9.84
2023-03-26T03:31:55.661Z,9.80
2023-03-26T03:34:26.556Z,9.78
2023-03-26T03:36:54.899Z,9.75
2023-03-26T03:39:23.288Z,9.73
2023-03-26T03:41:55.529Z,9.71
2023-03-26T03:44:23.908Z,9.69
2023-03-26T03:46:55.475Z,9.65
2023-03-26T03:49:24.200Z,9.60
2023-03-26T03:51:52.566Z,9.56
2023-03-26T03:54:20.998Z,9.56
2023-03-26T03:56:49.609Z,9.54
2023-03-26T03:59:17.993Z,9.52
2023-03-26T04:01:46.715Z,9.50
2023-03-26T04:04:16.680Z,9.51
2023-03-26T04:06:45.292Z,9.52
2023-03-26T04:09:13.701Z,9.50
2023-03-26T04:11:42.009Z,9.47
2023-03-26T04:14:10.608Z,9.44
2023-03-26T04:16:39.329Z,9.35
2023-03-26T04:19:08.484Z,9.26
2023-03-26T04:21:38.484Z,9.17
2023-03-26T04:24:07.342Z,9.06
2023-03-26T04:26:36.096Z,8.96
2023-03-26T04:29:11.924Z,8.93
2023-03-26T04:31:40.378Z,8.92
2023-03-26T04:34:14.549Z,8.90
2023-03-26T04:36:46.337Z,8.86
2023-03-26T04:39:15.039Z,8.84
2023-03-26T04:41:43.392Z,8.81
2023-03-26T04:44:11.834Z,8.79
2023-03-26T04:46:43.767Z,8.78
2023-03-26T04:49:12.361Z,8.80
2023-03-26T04:51:42.544Z,8.81
2023-03-26T04:54:14.356Z,8.75
2023-03-26T04:56:48.236Z,8.71
2023-03-26T04:59:20.170Z,8.66
2023-03-26T05:01:48.762Z,8.62
2023-03-26T05:04:17.155Z,8.65
2023-03-26T05:06:45.809Z,8.70
2023-03-26T05:09:15.720Z,8.70
2023-03-26T05:11:44.136Z,8.77
2023-03-26T05:14:12.639Z,8.81
2023-03-26T05:16:41.390Z,8.83
2023-03-26T05:19:10.036Z,8.88
2023-03-26T05:21:38.379Z,8.92
2023-03-26T05:24:07.733Z,8.96
2023-03-26T05:26:38.146Z,8.97
2023-03-26T05:29:06.866Z,8.96
2023-03-26T05:31:35.252Z,8.97
2023-03-26T05:34:03.777Z,9.01
2023-03-26T05:36:32.264Z,9.02
2023-03-26T05:39:00.617Z,9.06
2023-03-26T05:41:30.039Z,9.11
2023-03-26T05:43:59.769Z,9.13
2023-03-26T05:46:31.074Z,9.13
2023-03-26T05:48:59.550Z,9.13
2023-03-26T05:51:31.239Z,9.11
2023-03-26T05:53:59.602Z,9.09
2023-03-26T05:56:30.618Z,9.10
2023-03-26T05:59:01.175Z,9.05
2023-03-26T06:01:31.653Z,9.02
2023-03-26T06:04:00.110Z,8.98
2023-03-26T06:06:29.611Z,8.95
2023-03-26T06:09:01.577Z,8.98
2023-03-26T06:11:32.948Z,8.98
2023-03-26T06:14:02.878Z,8.98
2023-03-26T06:16:31.337Z,8.94
2023-03-26T06:18:59.851Z,8.87
2023-03-26T06:21:29.989Z,8.79
2023-03-26T06:23:58.473Z,8.74
2023-03-26T06:26:26.912Z,8.71
2023-03-26T06:28:55.298Z,8.73
2023-03-26T06:31:24.988Z,8.77
2023-03-26T06:33:53.586Z,8.79
2023-03-26T06:36:22.017Z,8.79
2023-03-26T06:38:50.359Z,8.82
2023-03-26T06:41:18.899Z,8.89
2023-03-26T06:43:47.281Z,8.96
2023-03-26T06:46:15.712Z,9.04
2023-03-26T06:48:45.556Z,9.13
2023-03-26T06:51:13.971Z,9.19
2023-03-26T06:53:42.312Z,9.22
2023-03-26T06:56:13.869Z,9.28
2023-03-26T06:58:42.312Z,9.31
2023-03-26T07:01:10.876Z,9.38
2023-03-26T07:03:39.251Z,9.45
2023-03-26T07:06:09.730Z,9.54
2023-03-26T07:08:38.170Z,9.59
2023-03-26T07:11:07.310Z,9.66
2023-03-26T07:13:36.615Z,9.69
2023-03-26T07:16:05.507Z,9.71
2023-03-26T07:18:34.263Z,9.77
2023-03-26T07:21:03.440Z,9.83
2023-03-26T07:23:33.949Z,9.88
2023-03-26T07:26:13.068Z,9.90
2023-03-26T07:29:04.444Z,9.88
2023-03-26T07:31:42.668Z,9.90
2023-03-26T07:34:23.148Z,9.96
2023-03-26T07:36:58.443Z,10.04
2023-03-26T07:39:41.713Z,10.11
2023-03-26T07:42:24.447Z,10.17
2023-03-26T07:44:58.442Z,10.21
2023-03-26T07:47:33.378Z,10.25
2023-03-26T07:50:03.005Z,10.32
2023-03-26T07:52:34.768Z,10.37
2023-03-26T07:55:05.444Z,10.41
2023-03-26T07:57:44.457Z,10.43
2023-03-26T08:00:18.897Z,10.48
2023-03-26T08:03:22.536Z,10.49
2023-03-26T08:05:57.412Z,10.50
2023-03-26T08:08:34.722Z,10.54
2023-03-26T08:11:23.255Z,10.57
2023-03-26T08:14:02.006Z,10.57
2023-03-26T08:16:37.553Z,10.57
2023-03-26T08:19:16.660Z,10.59
2023-03-26T08:21:51.833Z,10.62
2023-03-26T08:24:28.249Z,10.68
2023-03-26T08:27:05.309Z,10.74
2023-03-26T08:29:41.280Z,10.82
2023-03-26T08:32:15.490Z,10.92
2023-03-26T08:34:43.907Z,11.02
2023-03-26T08:37:12.224Z,11.13
2023-03-26T08:39:42.241Z,11.22
2023-03-26T08:42:54.464Z,11.30
2023-03-26T08:46:03.355Z,11.31
2023-03-26T08:49:01.459Z,11.34
2023-03-26T08:52:13.695Z,11.38
2023-03-26T08:55:03.618Z,11.43
2023-03-26T08:57:57.948Z,11.48
2023-03-26T09:00:39.457Z,11.49
2023-03-26T09:03:32.739Z,11.51
2023-03-26T09:06:46.626Z,11.53
2023-03-26T09:09:44.923Z,11.52
2023-03-26T09:12:42.798Z,11.55
2023-03-26T09:15:49.990Z,11.56
2023-03-26T09:18:57.657Z,11.60
2023-03-26T09:21:50.024Z,11.63
2023-03-26T09:24:51.336Z,11.66
2023-03-26T09:27:38.446Z,11.65
2023-03-26T09:30:48.118Z,11.67
2023-03-26T09:33:29.158Z,11.69
2023-03-26T09:36:24.363Z,11.73
2023-03-26T09:39:03.879Z,11.76
2023-03-26T09:41:39.312Z,11.83
2023-03-26T09:44:49.535Z,11.90
2023-03-26T09:47:38.442Z,11.96
2023-03-26T09:50:32.775Z,11.97
2023-03-26T09:53:20.613Z,12.01
2023-03-26T09:56:04.628Z,12.04
2023-03-26T09:58:53.153Z,12.06
2023-03-26T10:01:33.296Z,12.05
2023-03-26T10:04:38.015Z,12.03
2023-03-26T10:07:15.318Z,11.95
2023-03-26T10:09:54.486Z,11.93
2023-03-26T10:12:34.137Z,11.89
2023-03-26T10:15:14.456Z,11.89
2023-03-26T10:17:52.673Z,11.88
2023-03-26T10:20:46.760Z,11.83
2023-03-26T10:23:33.577Z,11.81
2023-03-26T10:26:21.446Z,11.79
2023-03-26T10:29:04.557Z,11.78
2023-03-26T10:31:43.250Z,11.82
2023-03-26T10:34:28.833Z,11.89
2023-03-26T10:37:08.773Z,11.92
2023-03-26T10:40:07.129Z,11.95
2023-03-26T10:42:51.556Z,11.92
2023-03-26T10:45:41.945Z,11.88
2023-03-26T10:48:43.928Z,11.85
2023-03-26T10:51:34.224Z,11.82
2023-03-26T10:54:07.221Z,11.78
2023-03-26T10:56:38.631Z,11.73
2023-03-26T10:59:13.149Z,11.71
2023-03-26T11:01:48.165Z,11.70
2023-03-26T11:04:28.743Z,11.73
2023-03-26T11:07:08.735Z,11.77
2023-03-26T11:09:45.673Z,11.83
2023-03-26T11:12:27.252Z,11.90
2023-03-26T11:15:12.878Z,11.96
2023-03-26T11:17:50.955Z,12.09
2023-03-26T11:20:27.467Z,12.19
2023-03-26T11:23:08.897Z,12.29
2023-03-26T11:25:50.956Z,12.40
2023-03-26T11:28:34.259Z,12.45
2023-03-26T11:31:12.997Z,12.47
2023-03-26T11:33:46.437Z,12.49
2023-03-26T11:36:20.993Z,12.51
2023-03-26T11:38:52.213Z,12.52
2023-03-26T11:41:23.823Z,12.48
2023-03-26T11:43:56.696Z,12.43
2023-03-26T11:46:28.685Z,12.43
2023-03-26T11:49:00.006Z,12.49
2023-03-26T11:51:32.705Z,12.55
2023-03-26T11:54:01.375Z,12.55
2023-03-26T11:56:34.704Z,12.57
2023-03-26T11:59:07.610Z,12.63
2023-03-26T12:01:50.405Z,12.71
2023-03-26T12:04:20.634Z,12.75
2023-03-26T12:06:56.539Z,12.75
2023-03-26T12:09:25.939Z,12.77
2023-03-26T12:12:01.767Z,12.79
2023-03-26T12:14:33.502Z,12.78
2023-03-26T12:17:06.988Z,12.76
2023-03-26T12:19:39.398Z,12.73
2023-03-26T12:22:29.509Z,12.71
2023-03-26T12:25:16.575Z,12.74
2023-03-26T12:27:46.264Z,12.77
2023-03-26T12:30:22.257Z,12.70
2023-03-26T12:32:54.468Z,12.66
2023-03-26T12:35:27.419Z,12.70
2023-03-26T12:37:58.135Z,12.64
2023-03-26T12:40:34.431Z,12.57
2023-03-26T12:44:48.306Z,12.56
2023-03-26T12:47:55.499Z,12.59
2023-03-26T12:48:48.993Z,12.49
2023-03-26T12:51:35.899Z,12.44
2023-03-26T12:54:16.511Z,12.28
2023-03-26T12:57:12.111Z,12.18
2023-03-26T12:59:50.910Z,12.09
2023-03-26T13:02:35.284Z,12.02
2023-03-26T13:05:17.760Z,12.03
2023-03-26T13:07:58.968Z,12.10
2023-03-26T13:10:46.154Z,12.12
2023-03-26T13:13:56.048Z,12.12
2023-03-26T13:16:35.112Z,12.07
2023-03-26T13:19:10.218Z,11.93
2023-03-26T13:21:53.752Z,11.66
2023-03-26T13:24:31.484Z,11.53
2023-03-26T13:27:12.398Z,11.46
2023-03-26T13:29:49.921Z,11.43
2023-03-26T13:32:30.879Z,11.39
2023-03-26T13:35:11.508Z,11.40
2023-03-26T13:37:48.635Z,11.37
2023-03-26T13:40:26.111Z,11.34
2023-03-26T13:43:24.184Z,11.31
2023-03-26T13:46:01.288Z,11.31
2023-03-26T13:48:35.033Z,11.28
2023-03-26T13:51:09.971Z,11.25
2023-03-26T13:53:44.612Z,11.26
2023-03-26T13:56:16.843Z,11.27
2023-03-26T13:58:51.817Z,11.32
2023-03-26T14:01:22.562Z,11.36
2023-03-26T14:03:57.187Z,11.38
2023-03-26T14:06:46.853Z,11.37
2023-03-26T14:09:23.384Z,11.38
2023-03-26T14:12:03.755Z,11.37
2023-03-26T14:14:38.729Z,11.40
2023-03-26T14:17:16.425Z,11.42
2023-03-26T14:20:21.702Z,11.43
2023-03-26T14:23:03.186Z,11.44
2023-03-26T14:25:48.901Z,11.47
2023-03-26T14:28:47.009Z,11.54
2023-03-26T14:31:23.821Z,11.60
2023-03-26T14:34:16.566Z,11.67
2023-03-26T14:37:11.796Z,11.72
2023-03-26T14:40:12.903Z,11.75
2023-03-26T14:42:49.007Z,11.77
2023-03-26T14:45:46.999Z,11.74
2023-03-26T14:48:48.371Z,11.68
2023-03-26T14:51:30.046Z,11.68
2023-03-26T14:54:05.709Z,11.70
2023-03-26T14:56:58.136Z,11.70
2023-03-26T15:00:11.337Z,11.68
2023-03-26T15:03:15.853Z,11.63
2023-03-26T15:06:00.522Z,11.63
2023-03-26T15:09:12.868Z,11.61
2023-03-26T15:11:50.502Z,11.63
2023-03-26T15:15:08.298Z,11.62
2023-03-26T15:18:03.105Z,11.63
2023-03-26T15:21:19.374Z,11.65
2023-03-26T15:24:23.147Z,11.67
2023-03-26T15:27:27.625Z,11.68
2023-03-26T15:30:56.539Z,11.70
2023-03-26T15:34:02.825Z,11.70
2023-03-26T15:36:58.934Z,11.71
2023-03-26T15:40:07.435Z,11.71
2023-03-26T15:42:49.439Z,11.66
2023-03-26T15:45:31.215Z,11.60
2023-03-26T15:48:12.959Z,11.55
2023-03-26T15:50:53.840Z,11.52
2023-03-26T15:53:38.371Z,11.51
2023-03-26T15:56:28.944Z,11.54
2023-03-26T15:59:05.254Z,11.55
2023-03-26T16:02:02.287Z,11.58
2023-03-26T16:04:50.771Z,11.57
2023-03-26T16:07:47.091Z,11.58
2023-03-26T16:10:28.336Z,11.53
2023-03-26T16:13:24.273Z,11.52
2023-03-26T16:15:57.996Z,11.51
2023-03-26T16:18:30.865Z,11.52
2023-03-26T16:21:31.420Z,11.51
2023-03-26T16:24:20.676Z,11.48
2023-03-26T16:27:01.972Z,11.46
2023-03-26T16:29:34.275Z,11.47
2023-03-26T16:32:16.136Z,11.48
2023-03-26T16:34:50.807Z,11.46
2023-03-26T16:37:40.011Z,11.38
2023-03-26T16:40:34.415Z,10.96
2023-03-26T16:43:31.596Z,10.53
2023-03-26T16:46:06.817Z,10.24
2023-03-26T16:48:42.444Z,10.09
2023-03-26T16:51:18.623Z,10.00
2023-03-26T16:53:57.937Z,9.94
2023-03-26T16:56:40.462Z,9.79
2023-03-26T16:59:25.208Z,9.79
2023-03-26T17:02:06.832Z,9.71
2023-03-26T17:04:37.289Z,9.68
2023-03-26T17:07:16.536Z,9.63
2023-03-26T17:10:02.752Z,9.61
2023-03-26T17:12:40.505Z,9.61
2023-03-26T17:15:20.934Z,9.64
2023-03-26T17:18:02.447Z,9.58
2023-03-26T17:20:38.629Z,9.63
2023-03-26T17:23:25.647Z,9.64
2023-03-26T17:26:03.996Z,9.59
2023-03-26T17:28:50.692Z,9.61
2023-03-26T17:31:28.143Z,9.63
2023-03-26T17:34:34.997Z,9.63
2023-03-26T17:37:11.888Z,9.61
2023-03-26T17:40:38.006Z,9.58
2023-03-26T17:43:12.612Z,9.53
2023-03-26T17:45:45.821Z,9.56
2023-03-26T17:48:37.659Z,9.52
2023-03-26T17:51:32.947Z,9.45
2023-03-26T17:54:01.883Z,9.43
2023-03-26T17:56:33.244Z,9.37
2023-03-26T17:59:11.212Z,9.31
2023-03-26T18:01:45.123Z,9.31
2023-03-26T18:04:19.872Z,9.26
2023-03-26T18:07:05.093Z,9.18
2023-03-26T18:09:49.377Z,9.09
2023-03-26T18:12:34.258Z,9.02
2023-03-26T18:15:27.954Z,8.92
2023-03-26T18:18:03.970Z,8.75
2023-03-26T18:20:32.602Z,8.60
2023-03-26T18:23:12.310Z,8.42
2023-03-26T18:25:41.344Z,8.24
2023-03-26T18:28:15.376Z,7.93
2023-03-26T18:30:48.299Z,7.66
2023-03-26T18:33:17.053Z,7.45
2023-03-26T18:35:47.398Z,7.24
2023-03-26T18:38:36.101Z,7.15
2023-03-26T18:41:09.036Z,7.13
2023-03-26T18:43:44.546Z,7.06
2023-03-26T18:46:14.968Z,6.92
2023-03-26T18:48:44.181Z,6.85
2023-03-26T18:51:13.222Z,6.82
2023-03-26T18:53:56.083Z,6.82
2023-03-26T18:56:33.830Z,6.82
2023-03-26T18:59:04.345Z,6.86
2023-03-26T19:01:35.307Z,6.96
2023-03-26T19:04:08.055Z,7.04
2023-03-26T19:06:43.107Z,7.05
2023-03-26T19:09:30.418Z,6.99
2023-03-26T19:12:07.304Z,7.00
2023-03-26T19:14:52.120Z,7.04
2023-03-26T19:17:20.764Z,7.12
2023-03-26T19:19:50.680Z,7.19
2023-03-26T19:22:21.539Z,7.17
2023-03-26T19:24:57.641Z,7.22
2023-03-26T19:27:26.332Z,7.34
2023-03-26T19:29:55.083Z,7.40
2023-03-26T19:32:32.359Z,7.43
2023-03-26T19:35:02.136Z,7.45
2023-03-26T19:37:32.456Z,7.51
2023-03-26T19:40:15.259Z,7.53
2023-03-26T19:42:45.085Z,7.56
2023-03-26T19:45:19.209Z,7.64
2023-03-26T19:48:00.121Z,7.79
2023-03-26T19:50:36.493Z,7.88
2023-03-26T19:53:18.616Z,7.98
2023-03-26T19:55:59.279Z,7.96
2023-03-26T19:58:28.651Z,7.92
2023-03-26T20:00:57.392Z,7.94
2023-03-26T20:03:29.935Z,7.91
2023-03-26T20:05:58.459Z,7.95
2023-03-26T20:08:27.840Z,7.91
2023-03-26T20:10:59.199Z,7.85
2023-03-26T20:13:28.171Z,7.77
2023-03-26T20:16:05.603Z,7.77
2023-03-26T20:18:35.249Z,7.77
2023-03-26T20:21:03.707Z,7.81
2023-03-26T20:23:32.125Z,7.78
2023-03-26T20:26:01.960Z,7.81
2023-03-26T20:28:35.390Z,7.77
2023-03-26T20:31:15.009Z,7.76
2023-03-26T20:33:43.872Z,7.80
2023-03-26T20:36:14.260Z,7.74
2023-03-26T20:39:05.783Z,7.66
2023-03-26T20:41:38.167Z,7.60
2023-03-26T20:44:13.812Z,7.56
2023-03-26T20:46:43.898Z,7.52
2023-03-26T20:49:15.097Z,7.45
2023-03-26T20:51:45.033Z,7.42
2023-03-26T20:54:17.729Z,7.41
2023-03-26T20:56:49.228Z,7.39
2023-03-26T20:59:22.369Z,7.36
2023-03-26T21:01:51.788Z,7.37
2023-03-26T21:04:21.442Z,7.41
2023-03-26T21:06:50.852Z,7.45
2023-03-26T21:09:24.015Z,7.49
2023-03-26T21:12:01.530Z,7.51
2023-03-26T21:14:34.397Z,7.49
2023-03-26T21:17:03.222Z,7.47
2023-03-26T21:19:32.139Z,7.48
2023-03-26T21:22:13.737Z,7.51
2023-03-26T21:24:59.013Z,7.53
2023-03-26T21:27:37.867Z,7.56
2023-03-26T21:30:13.858Z,7.59
2023-03-26T21:32:43.483Z,7.63
2023-03-26T21:35:13.613Z,7.63
2023-03-26T21:37:44.072Z,7.58
2023-03-26T21:40:15.553Z,7.61
2023-03-26T21:42:47.647Z,7.59
2023-03-26T21:45:17.308Z,7.55
2023-03-26T21:47:49.463Z,7.54
2023-03-26T21:50:20.510Z,7.56
2023-03-26T21:52:50.796Z,7.55
2023-03-26T21:55:21.484Z,7.54
2023-03-26T21:58:12.601Z,7.52
2023-03-26T22:00:53.760Z,7.51
2023-03-26T22:03:27.652Z,7.48
2023-03-26T22:06:02.070Z,7.49
2023-03-26T22:08:34.155Z,7.49
2023-03-26T22:11:02.558Z,7.49
2023-03-26T22:13:32.359Z,7.50
2023-03-26T22:16:00.814Z,7.49
2023-03-26T22:18:30.358Z,7.47
2023-03-26T22:20:59.835Z,7.47
2023-03-26T22:23:34.153Z,7.48
2023-03-26T22:26:02.942Z,7.47
2023-03-26T22:28:32.995Z,7.46
2023-03-26T22:31:07.317Z,7.44
2023-03-26T22:33:36.083Z,7.44
2023-03-26T22:36:04.775Z,7.44
2023-03-26T22:38:54.346Z,7.43
2023-03-26T22:41:23.352Z,7.44
2023-03-26T22:43:54.973Z,7.44
2023-03-26T22:46:23.751Z,7.42
2023-03-26T22:48:52.177Z,7.42
2023-03-26T22:51:20.815Z,7.37
2023-03-26T22:53:49.388Z,7.36
2023-03-26T22:56:18.779Z,7.35
2023-03-26T22:58:48.319Z,7.33
2023-03-26T23:01:20.280Z,7.37
2023-03-26T23:03:48.791Z,7.34
2023-03-26T23:06:17.645Z,7.34
2023-03-26T23:08:46.266Z,7.32
2023-03-26T23:11:17.047Z,7.30
2023-03-26T23:13:47.372Z,7.36
2023-03-26T23:16:26.625Z,7.36
2023-03-26T23:18:55.062Z,7.35
2023-03-26T23:21:23.770Z,7.32
2023-03-26T23:23:52.865Z,7.31
2023-03-26T23:26:21.414Z,7.34
2023-03-26T23:28:51.071Z,7.36
2023-03-26T23:31:19.723Z,7.40
2023-03-26T23:33:50.321Z,7.42
2023-03-26T23:36:20.136Z,7.38
2023-03-26T23:38:49.891Z,7.38
2023-03-26T23:41:21.462Z,7.39
2023-03-26T23:43:55.488Z,7.42
2023-03-26T23:46:31.007Z,7.41
2023-03-26T23:49:02.450Z,7.39
2023-03-26T23:51:31.844Z,7.37
2023-03-26T23:54:01.473Z,7.41
2023-03-26T23:56:30.473Z,7.40
2023-03-26T23:59:00.638Z,7.40
